Cardigan, Canada
Current Conditions -  °F | °C
As of 10:00 AM on Saturday 22 Nov 2014 (Local Time) from CYYG Reporting Station
Snow Showers Snow Showers  
Wind Chill:   Ceiling: 27000
Heat Index: 21°   Visibility: 12mi
Dew Point: 14°   Wind: 14mph
Humidity: 74%   Direction: 260°W
Pressure: 30.13"   Gusts: 22mph
Location:  46.23°N, 62.62°W
Report Text: CYYG 221400Z 26012G19KT 12SM -SHSN FEW017 SCT230 BKN270 M06/M10 A3013 RMK SC2CC2CI1 SLP206
Loading
Personal Weather Stations






























Interactive Weather Map New forecast layout! Learn more

10-Day Weather Forecast

Advertisements
Track Severe Weather on mobile